sensor_id;sensor_type;location;lat;lon;timestamp;pressure;altitude;pressure_sealevel;temperature
60003;BMP280;46322;52.018;8.702;2023-03-31T00:04:16;99163.69;;;19.68
60003;BMP280;46322;52.018;8.702;2023-03-31T00:09:16;99164.00;;;19.16
60003;BMP280;46322;52.018;8.702;2023-03-31T00:14:17;99148.53;;;19.24
60003;BMP280;46322;52.018;8.702;2023-03-31T00:19:17;99149.19;;;18.26
60003;BMP280;46322;52.018;8.702;2023-03-31T00:24:17;99140.16;;;18.02
60003;BMP280;46322;52.018;8.702;2023-03-31T00:29:17;99140.50;;;18.08
60003;BMP280;46322;52.018;8.702;2023-03-31T00:34:18;99136.16;;;18.65
60003;BMP280;46322;52.018;8.702;2023-03-31T00:39:18;99129.50;;;18.81
60003;BMP280;46322;52.018;8.702;2023-03-31T00:44:21;99117.81;;;18.94
60003;BMP280;46322;52.018;8.702;2023-03-31T00:49:30;99113.25;;;18.91
60003;BMP280;46322;52.018;8.702;2023-03-31T00:54:30;99093.47;;;17.99
60003;BMP280;46322;52.018;8.702;2023-03-31T00:59:33;99091.03;;;18.87
60003;BMP280;46322;52.018;8.702;2023-03-31T01:04:34;99083.41;;;18.07
60003;BMP280;46322;52.018;8.702;2023-03-31T01:09:35;99083.16;;;18.39
60003;BMP280;46322;52.018;8.702;2023-03-31T01:14:36;99076.88;;;17.67
60003;BMP280;46322;52.018;8.702;2023-03-31T01:24:58;99054.09;;;17.30
60003;BMP280;46322;52.018;8.702;2023-03-31T01:35:39;99038.53;;;17.70
60003;BMP280;46322;52.018;8.702;2023-03-31T01:46:09;99020.25;;;16.95
60003;BMP280;46322;52.018;8.702;2023-03-31T01:51:15;99019.06;;;18.07
60003;BMP280;46322;52.018;8.702;2023-03-31T02:01:24;99006.75;;;18.13
60003;BMP280;46322;52.018;8.702;2023-03-31T02:06:29;98983.28;;;17.87
60003;BMP280;46322;52.018;8.702;2023-03-31T02:11:30;98980.69;;;17.76
60003;BMP280;46322;52.018;8.702;2023-03-31T02:16:32;98969.06;;;18.27
60003;BMP280;46322;52.018;8.702;2023-03-31T02:21:34;98958.44;;;18.20
60003;BMP280;46322;52.018;8.702;2023-03-31T02:26:36;98958.50;;;18.13
60003;BMP280;46322;52.018;8.702;2023-03-31T02:32:01;98953.09;;;18.81
60003;BMP280;46322;52.018;8.702;2023-03-31T02:37:02;98939.69;;;18.51
60003;BMP280;46322;52.018;8.702;2023-03-31T02:42:03;98934.19;;;17.93
60003;BMP280;46322;52.018;8.702;2023-03-31T02:47:04;98920.66;;;17.67
60003;BMP280;46322;52.018;8.702;2023-03-31T02:52:20;98914.69;;;17.52
60003;BMP280;46322;52.018;8.702;2023-03-31T03:02:26;98897.94;;;18.16
60003;BMP280;46322;52.018;8.702;2023-03-31T03:07:54;98884.06;;;19.28
60003;BMP280;46322;52.018;8.702;2023-03-31T03:13:00;98887.63;;;18.72
60003;BMP280;46322;52.018;8.702;2023-03-31T03:18:05;98864.09;;;18.56
60003;BMP280;46322;52.018;8.702;2023-03-31T03:23:05;98856.03;;;18.83
60003;BMP280;46322;52.018;8.702;2023-03-31T03:28:05;98847.19;;;17.26
60003;BMP280;46322;52.018;8.702;2023-03-31T03:33:05;98834.00;;;18.41
60003;BMP280;46322;52.018;8.702;2023-03-31T03:38:05;98830.75;;;18.57
60003;BMP280;46322;52.018;8.702;2023-03-31T03:43:06;98831.28;;;18.45
60003;BMP280;46322;52.018;8.702;2023-03-31T03:48:06;98804.75;;;17.93
60003;BMP280;46322;52.018;8.702;2023-03-31T03:53:06;98802.22;;;17.82
60003;BMP280;46322;52.018;8.702;2023-03-31T03:58:07;98775.41;;;17.82
60003;BMP280;46322;52.018;8.702;2023-03-31T04:03:07;98765.28;;;17.97
60003;BMP280;46322;52.018;8.702;2023-03-31T04:08:07;98745.31;;;18.28
60003;BMP280;46322;52.018;8.702;2023-03-31T04:13:07;98739.63;;;17.65
60003;BMP280;46322;52.018;8.702;2023-03-31T04:18:07;98731.00;;;17.13
60003;BMP280;46322;52.018;8.702;2023-03-31T04:23:08;98731.66;;;17.62
60003;BMP280;46322;52.018;8.702;2023-03-31T04:28:08;98716.75;;;17.88
60003;BMP280;46322;52.018;8.702;2023-03-31T04:33:08;98715.91;;;17.94
60003;BMP280;46322;52.018;8.702;2023-03-31T04:38:08;98715.50;;;17.96
60003;BMP280;46322;52.018;8.702;2023-03-31T04:43:08;98692.44;;;17.75
60003;BMP280;46322;52.018;8.702;2023-03-31T04:48:09;98687.00;;;18.09
60003;BMP280;46322;52.018;8.702;2023-03-31T04:53:09;98672.88;;;17.48
60003;BMP280;46322;52.018;8.702;2023-03-31T04:58:09;98670.28;;;17.71
60003;BMP280;46322;52.018;8.702;2023-03-31T05:03:09;98648.72;;;18.09
60003;BMP280;46322;52.018;8.702;2023-03-31T05:08:09;98652.38;;;17.34
60003;BMP280;46322;52.018;8.702;2023-03-31T05:13:10;98650.59;;;17.85
60003;BMP280;46322;52.018;8.702;2023-03-31T05:18:10;98634.66;;;18.48
60003;BMP280;46322;52.018;8.702;2023-03-31T05:23:10;98624.09;;;17.90
60003;BMP280;46322;52.018;8.702;2023-03-31T05:28:10;98624.38;;;18.19
60003;BMP280;46322;52.018;8.702;2023-03-31T05:33:10;98621.03;;;17.88
60003;BMP280;46322;52.018;8.702;2023-03-31T05:38:10;98615.34;;;17.33
60003;BMP280;46322;52.018;8.702;2023-03-31T05:43:10;98612.69;;;17.83
60003;BMP280;46322;52.018;8.702;2023-03-31T05:48:10;98611.97;;;18.06
60003;BMP280;46322;52.018;8.702;2023-03-31T05:53:11;98597.03;;;17.54
60003;BMP280;46322;52.018;8.702;2023-03-31T05:58:11;98585.22;;;18.49
60003;BMP280;46322;52.018;8.702;2023-03-31T06:03:11;98580.41;;;17.40
60003;BMP280;46322;52.018;8.702;2023-03-31T06:08:11;98566.19;;;17.16
60003;BMP280;46322;52.018;8.702;2023-03-31T06:13:11;98560.28;;;17.55
60003;BMP280;46322;52.018;8.702;2023-03-31T06:18:11;98558.38;;;17.55
60003;BMP280;46322;52.018;8.702;2023-03-31T06:23:11;98539.38;;;17.96
60003;BMP280;46322;52.018;8.702;2023-03-31T06:28:12;98532.31;;;18.06
60003;BMP280;46322;52.018;8.702;2023-03-31T06:33:12;98520.69;;;17.16
60003;BMP280;46322;52.018;8.702;2023-03-31T06:38:12;98510.91;;;18.46
60003;BMP280;46322;52.018;8.702;2023-03-31T06:43:12;98501.81;;;18.40
60003;BMP280;46322;52.018;8.702;2023-03-31T06:48:12;98497.16;;;17.77
60003;BMP280;46322;52.018;8.702;2023-03-31T06:53:13;98480.69;;;18.22
60003;BMP280;46322;52.018;8.702;2023-03-31T06:58:13;98476.72;;;17.67
60003;BMP280;46322;52.018;8.702;2023-03-31T07:03:13;98469.97;;;18.22
60003;BMP280;46322;52.018;8.702;2023-03-31T07:08:13;98479.47;;;17.37
60003;BMP280;46322;52.018;8.702;2023-03-31T07:13:14;98449.84;;;16.93
60003;BMP280;46322;52.018;8.702;2023-03-31T07:18:14;98444.81;;;17.49
60003;BMP280;46322;52.018;8.702;2023-03-31T07:23:15;98433.94;;;17.60
60003;BMP280;46322;52.018;8.702;2023-03-31T07:28:15;98418.00;;;17.73
60003;BMP280;46322;52.018;8.702;2023-03-31T07:33:16;98421.81;;;17.28
60003;BMP280;46322;52.018;8.702;2023-03-31T07:38:16;98421.22;;;17.68
60003;BMP280;46322;52.018;8.702;2023-03-31T07:43:16;98419.09;;;17.79
60003;BMP280;46322;52.018;8.702;2023-03-31T07:48:16;98403.94;;;17.92
60003;BMP280;46322;52.018;8.702;2023-03-31T07:53:16;98395.22;;;18.80
60003;BMP280;46322;52.018;8.702;2023-03-31T07:58:16;98387.13;;;17.68
60003;BMP280;46322;52.018;8.702;2023-03-31T08:03:16;98384.28;;;18.71
60003;BMP280;46322;52.018;8.702;2023-03-31T08:08:17;98383.13;;;18.36
60003;BMP280;46322;52.018;8.702;2023-03-31T08:13:17;98369.19;;;18.44
60003;BMP280;46322;52.018;8.702;2023-03-31T08:18:17;98371.31;;;18.33
60003;BMP280;46322;52.018;8.702;2023-03-31T08:23:17;98370.78;;;19.07
60003;BMP280;46322;52.018;8.702;2023-03-31T08:28:17;98368.84;;;17.83
60003;BMP280;46322;52.018;8.702;2023-03-31T08:33:17;98357.94;;;17.74
60003;BMP280;46322;52.018;8.702;2023-03-31T08:38:18;98365.34;;;17.66
60003;BMP280;46322;52.018;8.702;2023-03-31T08:43:22;98368.53;;;18.56
60003;BMP280;46322;52.018;8.702;2023-03-31T08:48:29;98363.97;;;18.37
60003;BMP280;46322;52.018;8.702;2023-03-31T08:53:45;98350.94;;;18.36
60003;BMP280;46322;52.018;8.702;2023-03-31T08:58:49;98351.97;;;18.06
60003;BMP280;46322;52.018;8.702;2023-03-31T09:08:56;98355.34;;;17.23
60003;BMP280;46322;52.018;8.702;2023-03-31T09:19:19;98353.88;;;17.19
60003;BMP280;46322;52.018;8.702;2023-03-31T09:24:22;98343.00;;;18.12
60003;BMP280;46322;52.018;8.702;2023-03-31T09:34:41;98327.41;;;17.24
60003;BMP280;46322;52.018;8.702;2023-03-31T09:39:42;98327.72;;;18.29
60003;BMP280;46322;52.018;8.702;2023-03-31T09:44:43;98334.00;;;18.22
60003;BMP280;46322;52.018;8.702;2023-03-31T09:49:44;98343.38;;;18.14
60003;BMP280;46322;52.018;8.702;2023-03-31T09:54:45;98334.81;;;17.40
60003;BMP280;46322;52.018;8.702;2023-03-31T09:59:49;98331.66;;;16.98
60003;BMP280;46322;52.018;8.702;2023-03-31T10:04:49;98329.50;;;16.90
60003;BMP280;46322;52.018;8.702;2023-03-31T10:09:50;98313.50;;;17.56
60003;BMP280;46322;52.018;8.702;2023-03-31T10:14:51;98309.59;;;17.77
60003;BMP280;46322;52.018;8.702;2023-03-31T10:19:53;98324.59;;;18.30
60003;BMP280;46322;52.018;8.702;2023-03-31T10:24:56;98314.94;;;18.53
60003;BMP280;46322;52.018;8.702;2023-03-31T10:30:08;98311.19;;;18.66
60003;BMP280;46322;52.018;8.702;2023-03-31T10:40:26;98295.66;;;18.74
60003;BMP280;46322;52.018;8.702;2023-03-31T10:45:28;98285.22;;;19.38
60003;BMP280;46322;52.018;8.702;2023-03-31T10:50:29;98284.44;;;17.75
60003;BMP280;46322;52.018;8.702;2023-03-31T10:55:34;98276.28;;;19.28
60003;BMP280;46322;52.018;8.702;2023-03-31T11:00:37;98262.91;;;19.12
60003;BMP280;46322;52.018;8.702;2023-03-31T11:10:59;98266.28;;;20.46
60003;BMP280;46322;52.018;8.702;2023-03-31T11:26:08;98241.94;;;19.35
60003;BMP280;46322;52.018;8.702;2023-03-31T11:31:15;98247.97;;;23.07
60003;BMP280;46322;52.018;8.702;2023-03-31T11:41:48;98226.34;;;21.44
60003;BMP280;46322;52.018;8.702;2023-03-31T11:46:56;98217.34;;;22.91
60003;BMP280;46322;52.018;8.702;2023-03-31T11:52:01;98210.28;;;22.21
60003;BMP280;46322;52.018;8.702;2023-03-31T11:57:02;98202.66;;;20.52
60003;BMP280;46322;52.018;8.702;2023-03-31T12:12:14;98194.84;;;22.12
60003;BMP280;46322;52.018;8.702;2023-03-31T12:17:16;98192.25;;;20.98
60003;BMP280;46322;52.018;8.702;2023-03-31T12:27:32;98177.16;;;20.78
60003;BMP280;46322;52.018;8.702;2023-03-31T12:32:37;98169.75;;;21.35
60003;BMP280;46322;52.018;8.702;2023-03-31T12:37:46;98164.88;;;22.56
60003;BMP280;46322;52.018;8.702;2023-03-31T12:48:09;98158.81;;;23.07
60003;BMP280;46322;52.018;8.702;2023-03-31T13:13:54;98155.53;;;24.16
60003;BMP280;46322;52.018;8.702;2023-03-31T13:18:56;98137.38;;;21.75
60003;BMP280;46322;52.018;8.702;2023-03-31T13:24:00;98166.56;;;20.28
60003;BMP280;46322;52.018;8.702;2023-03-31T13:34:10;98188.66;;;18.76
60003;BMP280;46322;52.018;8.702;2023-03-31T13:55:00;98185.53;;;19.99
60003;BMP280;46322;52.018;8.702;2023-03-31T14:05:33;98180.66;;;18.89
60003;BMP280;46322;52.018;8.702;2023-03-31T14:10:35;98185.56;;;19.86
60003;BMP280;46322;52.018;8.702;2023-03-31T14:15:37;98180.50;;;18.18
60003;BMP280;46322;52.018;8.702;2023-03-31T14:20:43;98177.03;;;18.95
60003;BMP280;46322;52.018;8.702;2023-03-31T14:25:58;98181.56;;;20.03
60003;BMP280;46322;52.018;8.702;2023-03-31T14:31:10;98178.56;;;19.63
60003;BMP280;46322;52.018;8.702;2023-03-31T14:41:16;98162.78;;;19.65
60003;BMP280;46322;52.018;8.702;2023-03-31T14:46:20;98167.38;;;20.03
60003;BMP280;46322;52.018;8.702;2023-03-31T14:51:41;98157.44;;;19.24
60003;BMP280;46322;52.018;8.702;2023-03-31T14:56:42;98155.34;;;20.42
60003;BMP280;46322;52.018;8.702;2023-03-31T15:01:42;98157.41;;;20.38
60003;BMP280;46322;52.018;8.702;2023-03-31T15:06:45;98154.81;;;19.87
60003;BMP280;46322;52.018;8.702;2023-03-31T15:11:46;98145.88;;;19.27
60003;BMP280;46322;52.018;8.702;2023-03-31T15:16:48;98155.00;;;18.88
60003;BMP280;46322;52.018;8.702;2023-03-31T15:21:58;98143.88;;;19.02
60003;BMP280;46322;52.018;8.702;2023-03-31T15:27:17;98147.41;;;19.79
60003;BMP280;46322;52.018;8.702;2023-03-31T15:32:22;98145.88;;;19.65
60003;BMP280;46322;52.018;8.702;2023-03-31T15:37:28;98132.41;;;20.72
60003;BMP280;46322;52.018;8.702;2023-03-31T15:42:28;98121.50;;;19.34
60003;BMP280;46322;52.018;8.702;2023-03-31T15:47:29;98120.63;;;20.00
60003;BMP280;46322;52.018;8.702;2023-03-31T15:52:36;98119.78;;;20.60
60003;BMP280;46322;52.018;8.702;2023-03-31T15:57:36;98110.97;;;19.40
60003;BMP280;46322;52.018;8.702;2023-03-31T16:02:41;98104.19;;;20.20
60003;BMP280;46322;52.018;8.702;2023-03-31T16:07:42;98101.22;;;20.05
60003;BMP280;46322;52.018;8.702;2023-03-31T16:12:47;98098.63;;;21.82
60003;BMP280;46322;52.018;8.702;2023-03-31T16:17:53;98101.50;;;19.73
60003;BMP280;46322;52.018;8.702;2023-03-31T16:22:55;98103.22;;;19.54
60003;BMP280;46322;52.018;8.702;2023-03-31T16:27:57;98102.13;;;19.64
60003;BMP280;46322;52.018;8.702;2023-03-31T16:37:58;98089.34;;;19.68
60003;BMP280;46322;52.018;8.702;2023-03-31T16:48:19;98088.06;;;19.35
60003;BMP280;46322;52.018;8.702;2023-03-31T16:53:20;98087.25;;;20.32
60003;BMP280;46322;52.018;8.702;2023-03-31T16:58:21;98069.91;;;19.52
60003;BMP280;46322;52.018;8.702;2023-03-31T17:03:21;98080.56;;;19.43
60003;BMP280;46322;52.018;8.702;2023-03-31T17:08:22;98082.38;;;20.18
60003;BMP280;46322;52.018;8.702;2023-03-31T17:13:22;98099.59;;;19.48
60003;BMP280;46322;52.018;8.702;2023-03-31T17:18:23;98102.00;;;20.28
60003;BMP280;46322;52.018;8.702;2023-03-31T17:23:23;98127.00;;;20.16
60003;BMP280;46322;52.018;8.702;2023-03-31T17:28:23;98110.06;;;19.81
60003;BMP280;46322;52.018;8.702;2023-03-31T17:33:23;98127.75;;;20.16
60003;BMP280;46322;52.018;8.702;2023-03-31T17:38:24;98134.00;;;19.12
60003;BMP280;46322;52.018;8.702;2023-03-31T17:43:24;98126.75;;;19.38
60003;BMP280;46322;52.018;8.702;2023-03-31T17:48:25;98110.06;;;19.81
60003;BMP280;46322;52.018;8.702;2023-03-31T17:53:25;98122.66;;;19.08
60003;BMP280;46322;52.018;8.702;2023-03-31T17:58:25;98117.69;;;18.77
60003;BMP280;46322;52.018;8.702;2023-03-31T18:03:28;98129.34;;;19.54
60003;BMP280;46322;52.018;8.702;2023-03-31T18:08:28;98126.31;;;18.72
60003;BMP280;46322;52.018;8.702;2023-03-31T18:13:29;98127.47;;;20.14
60003;BMP280;46322;52.018;8.702;2023-03-31T18:18:29;98120.19;;;19.13
60003;BMP280;46322;52.018;8.702;2023-03-31T18:23:29;98128.13;;;19.17
60003;BMP280;46322;52.018;8.702;2023-03-31T18:28:29;98119.69;;;18.15
60003;BMP280;46322;52.018;8.702;2023-03-31T18:33:29;98129.38;;;18.99
60003;BMP280;46322;52.018;8.702;2023-03-31T18:38:30;98131.19;;;17.27
60003;BMP280;46322;52.018;8.702;2023-03-31T18:43:30;98134.25;;;17.26
60003;BMP280;46322;52.018;8.702;2023-03-31T18:48:30;98125.88;;;19.28
60003;BMP280;46322;52.018;8.702;2023-03-31T18:53:30;98125.56;;;18.10
60003;BMP280;46322;52.018;8.702;2023-03-31T18:58:30;98129.03;;;18.85
60003;BMP280;46322;52.018;8.702;2023-03-31T19:03:31;98126.34;;;18.85
60003;BMP280;46322;52.018;8.702;2023-03-31T19:08:31;98133.66;;;18.97
60003;BMP280;46322;52.018;8.702;2023-03-31T19:13:31;98130.25;;;19.09
60003;BMP280;46322;52.018;8.702;2023-03-31T19:18:31;98127.13;;;18.24
60003;BMP280;46322;52.018;8.702;2023-03-31T19:23:32;98129.91;;;19.49
60003;BMP280;46322;52.018;8.702;2023-03-31T19:28:32;98126.94;;;18.47
60003;BMP280;46322;52.018;8.702;2023-03-31T19:33:33;98125.09;;;18.12
60003;BMP280;46322;52.018;8.702;2023-03-31T19:38:33;98123.69;;;17.39
60003;BMP280;46322;52.018;8.702;2023-03-31T19:43:33;98124.84;;;17.74
60003;BMP280;46322;52.018;8.702;2023-03-31T19:48:34;98122.78;;;18.14
60003;BMP280;46322;52.018;8.702;2023-03-31T19:53:35;98127.03;;;17.79
60003;BMP280;46322;52.018;8.702;2023-03-31T19:58:36;98129.16;;;18.20
60003;BMP280;46322;52.018;8.702;2023-03-31T20:03:36;98124.53;;;18.65
60003;BMP280;46322;52.018;8.702;2023-03-31T20:08:36;98115.06;;;17.99
60003;BMP280;46322;52.018;8.702;2023-03-31T20:13:37;98121.88;;;18.20
60003;BMP280;46322;52.018;8.702;2023-03-31T20:18:37;98113.72;;;18.24
60003;BMP280;46322;52.018;8.702;2023-03-31T20:23:38;98117.41;;;19.67
60003;BMP280;46322;52.018;8.702;2023-03-31T20:28:38;98116.06;;;17.73
60003;BMP280;46322;52.018;8.702;2023-03-31T20:33:39;98117.28;;;18.50
60003;BMP280;46322;52.018;8.702;2023-03-31T20:38:41;98107.84;;;17.64
60003;BMP280;46322;52.018;8.702;2023-03-31T20:43:41;98109.03;;;17.79
60003;BMP280;46322;52.018;8.702;2023-03-31T20:48:43;98122.38;;;18.15
60003;BMP280;46322;52.018;8.702;2023-03-31T20:53:45;98113.53;;;17.82
60003;BMP280;46322;52.018;8.702;2023-03-31T20:58:46;98111.81;;;17.40
60003;BMP280;46322;52.018;8.702;2023-03-31T21:03:46;98114.81;;;17.61
60003;BMP280;46322;52.018;8.702;2023-03-31T21:08:50;98118.31;;;16.59
60003;BMP280;46322;52.018;8.702;2023-03-31T21:13:51;98116.97;;;17.83
60003;BMP280;46322;52.018;8.702;2023-03-31T21:18:51;98114.25;;;17.86
60003;BMP280;46322;52.018;8.702;2023-03-31T21:23:52;98109.50;;;17.58
60003;BMP280;46322;52.018;8.702;2023-03-31T21:28:52;98117.78;;;17.63
60003;BMP280;46322;52.018;8.702;2023-03-31T21:33:52;98112.56;;;18.54
60003;BMP280;46322;52.018;8.702;2023-03-31T21:38:53;98116.91;;;17.86
60003;BMP280;46322;52.018;8.702;2023-03-31T21:43:54;98118.75;;;17.89
60003;BMP280;46322;52.018;8.702;2023-03-31T21:48:54;98118.19;;;17.46
60003;BMP280;46322;52.018;8.702;2023-03-31T21:53:54;98114.84;;;17.02
60003;BMP280;46322;52.018;8.702;2023-03-31T21:58:55;98108.50;;;17.68
60003;BMP280;46322;52.018;8.702;2023-03-31T22:03:55;98116.09;;;16.54
60003;BMP280;46322;52.018;8.702;2023-03-31T22:08:55;98118.59;;;17.44
60003;BMP280;46322;52.018;8.702;2023-03-31T22:13:55;98117.69;;;18.48
60003;BMP280;46322;52.018;8.702;2023-03-31T22:18:56;98125.63;;;18.23
60003;BMP280;46322;52.018;8.702;2023-03-31T22:23:57;98115.63;;;17.75
60003;BMP280;46322;52.018;8.702;2023-03-31T22:28:57;98116.31;;;17.79
60003;BMP280;46322;52.018;8.702;2023-03-31T22:33:57;98116.72;;;16.85
60003;BMP280;46322;52.018;8.702;2023-03-31T22:38:57;98117.84;;;16.64
60003;BMP280;46322;52.018;8.702;2023-03-31T22:43:58;98112.97;;;17.75
60003;BMP280;46322;52.018;8.702;2023-03-31T22:48:58;98116.44;;;16.80
60003;BMP280;46322;52.018;8.702;2023-03-31T22:53:58;98122.25;;;17.34
60003;BMP280;46322;52.018;8.702;2023-03-31T22:58:58;98118.31;;;16.59
60003;BMP280;46322;52.018;8.702;2023-03-31T23:03:58;98129.72;;;17.43
60003;BMP280;46322;52.018;8.702;2023-03-31T23:08:58;98118.53;;;16.69
60003;BMP280;46322;52.018;8.702;2023-03-31T23:13:58;98124.28;;;15.67
60003;BMP280;46322;52.018;8.702;2023-03-31T23:18:59;98122.66;;;17.13
60003;BMP280;46322;52.018;8.702;2023-03-31T23:23:59;98122.63;;;17.16
60003;BMP280;46322;52.018;8.702;2023-03-31T23:29:00;98122.06;;;16.85
60003;BMP280;46322;52.018;8.702;2023-03-31T23:34:00;98126.47;;;16.25
60003;BMP280;46322;52.018;8.702;2023-03-31T23:39:00;98127.00;;;17.26
60003;BMP280;46322;52.018;8.702;2023-03-31T23:44:00;98124.19;;;16.51
60003;BMP280;46322;52.018;8.702;2023-03-31T23:49:00;98122.78;;;16.43
60003;BMP280;46322;52.018;8.702;2023-03-31T23:54:00;98117.50;;;16.82
60003;BMP280;46322;52.018;8.702;2023-03-31T23:59:01;98117.44;;;17.25
